Time;durP1;ratioP1;P1;durP2;ratioP2;P2;SDS_P1;SDS_P2;PMS_P1;PMS_P2;Temp;Humidity;BMP_temperature;BMP_pressure;BME280_temperature;BME280_humidity;BME280_pressure;Samples;Min_cycle;Max_cycle;Signal;HPM_P1;HPM_P2
2023/01/18 00:01:48;;;;;;;12.93;4.87;;;-2.10;99.90;;;;;;4995322;28;20042;-85
2023/01/18 00:04:14;;;;;;;10.80;4.78;;;-1.30;99.90;;;;;;5000929;28;20045;-85
2023/01/18 00:06:58;;;;;;;12.27;4.77;;;0.80;99.90;;;;;;5019191;28;20037;-85
2023/01/18 00:09:47;;;;;;;12.40;5.10;;;-0.60;99.90;;;;;;5013024;28;20042;-85
2023/01/18 00:12:18;;;;;;;11.07;4.90;;;-0.40;99.90;;;;;;4994997;28;20045;-85
2023/01/18 00:15:03;;;;;;;10.80;4.63;;;-2.10;99.90;;;;;;4995178;28;20401;-85
2023/01/18 00:17:50;;;;;;;9.93;4.60;;;-1.50;99.90;;;;;;5012939;28;20042;-84
2023/01/18 00:20:23;;;;;;;10.83;4.70;;;0.00;99.90;;;;;;5011988;28;20046;-85
2023/01/18 00:23:01;;;;;;;10.80;4.80;;;-1.70;99.90;;;;;;4995257;28;20045;-87
2023/01/18 00:25:31;;;;;;;12.83;5.27;;;-1.50;99.90;;;;;;5012563;28;20472;-85
2023/01/18 00:28:15;;;;;;;13.07;5.03;;;-1.60;99.90;;;;;;4994798;28;20137;-87
2023/01/18 00:34:12;;;;;;;12.57;5.30;;;-1.20;99.90;;;;;;5007204;28;20052;-86
2023/01/18 00:36:58;;;;;;;11.87;5.57;;;-0.40;99.90;;;;;;5013339;28;20141;-85
2023/01/18 00:39:35;;;;;;;14.60;5.07;;;-0.70;99.90;;;;;;5013744;28;20037;-86
2023/01/18 00:45:02;;;;;;;12.73;4.97;;;-0.60;99.90;;;;;;5017074;28;20477;-86
2023/01/18 00:48:01;;;;;;;13.30;5.93;;;-1.70;99.90;;;;;;4994044;28;20357;-86
2023/01/18 00:50:27;;;;;;;14.53;6.50;;;-1.30;99.90;;;;;;4995043;28;20125;-86
2023/01/18 00:52:55;;;;;;;11.53;5.67;;;-1.90;99.90;;;;;;5012779;28;20046;-86
2023/01/18 00:55:39;;;;;;;12.17;6.30;;;-0.60;99.90;;;;;;4994180;28;20077;-86
2023/01/18 00:58:11;;;;;;;12.67;5.77;;;-0.40;99.90;;;;;;4995178;28;20128;-86
2023/01/18 01:00:37;;;;;;;14.90;6.50;;;-2.00;99.90;;;;;;4997863;28;20053;-85
2023/01/18 01:03:08;;;;;;;14.57;6.83;;;-1.90;99.90;;;;;;5015237;28;20531;-86
2023/01/18 01:08:49;;;;;;;14.83;7.47;;;-1.60;99.90;;;;;;5000350;28;20093;-86
2023/01/18 01:11:30;;;;;;;13.20;7.07;;;-2.60;99.90;;;;;;4998436;28;20133;-86
2023/01/18 01:26:19;;;;;;;15.90;7.67;;;-1.10;99.90;;;;;;4997800;28;20069;-86
2023/01/18 01:28:50;;;;;;;15.67;7.77;;;-0.70;99.90;;;;;;4998734;28;20092;-86
2023/01/18 01:31:17;;;;;;;17.17;8.17;;;-1.00;99.90;;;;;;4997671;28;20402;-86
2023/01/18 01:33:44;;;;;;;15.53;7.60;;;-2.40;99.90;;;;;;5016361;28;20104;-86
2023/01/18 01:36:12;;;;;;;15.00;7.80;;;-2.20;99.90;;;;;;5014876;28;20117;-85
2023/01/18 01:38:40;;;;;;;13.53;7.00;;;-0.90;99.90;;;;;;4998681;28;20045;-86
2023/01/18 01:41:28;;;;;;;14.45;7.28;;;-2.70;99.90;;;;;;4997348;28;20140;-86
2023/01/18 01:44:18;;;;;;;15.68;8.02;;;-2.10;99.90;;;;;;5015163;28;20125;-86
2023/01/18 01:46:51;;;;;;;15.43;7.63;;;-2.40;99.90;;;;;;4996417;28;20089;-86
2023/01/18 01:49:39;;;;;;;14.93;7.35;;;-0.40;99.90;;;;;;5015849;28;20092;-86
2023/01/18 01:52:13;;;;;;;14.27;7.30;;;-2.70;99.90;;;;;;4997767;28;20045;-86
2023/01/18 01:54:41;;;;;;;;;;;-2.10;99.90;;;;;;5016432;23;20093;-85
2023/01/18 01:57:32;;;;;;;15.40;8.63;;;-2.10;99.90;;;;;;5000633;28;19929;-85
2023/01/18 02:00:12;;;;;;;18.67;8.45;;;-2.20;99.90;;;;;;5015949;28;20045;-86
2023/01/18 02:02:39;;;;;;;15.67;7.40;;;-2.20;99.90;;;;;;5017971;23;20064;-86
2023/01/18 02:05:08;;;;;;;13.33;7.40;;;-1.70;99.90;;;;;;4997360;28;20081;-86
2023/01/18 02:07:34;;;;;;;16.63;7.70;;;-2.30;99.90;;;;;;5015488;28;20054;-86
2023/01/18 02:10:20;;;;;;;14.93;7.50;;;-1.00;99.90;;;;;;4997409;28;20164;-86
2023/01/18 02:12:52;;;;;;;14.17;7.43;;;-2.80;99.90;;;;;;5014856;28;20103;-86
2023/01/18 02:15:39;;;;;;;13.77;7.70;;;-3.50;99.90;;;;;;4997864;28;20042;-86
2023/01/18 02:18:23;;;;;;;12.53;7.23;;;-2.80;99.90;;;;;;4997652;28;20060;-86
2023/01/18 02:21:27;;;;;;;15.40;8.13;;;-2.70;99.90;;;;;;4997820;28;20389;-86
2023/01/18 02:24:22;;;;;;;15.50;8.20;;;-2.40;99.90;;;;;;4997760;28;20084;-86
2023/01/18 02:27:30;;;;;;;16.03;7.97;;;-2.90;99.90;;;;;;4996864;28;20052;-86
2023/01/18 02:30:49;;;;;;;17.00;8.43;;;-2.90;99.90;;;;;;4972758;28;20046;-86
2023/01/18 02:33:48;;;;;;;14.10;8.13;;;-1.80;99.90;;;;;;5022086;28;20042;-86
2023/01/18 02:36:50;;;;;;;14.80;8.43;;;-2.00;99.90;;;;;;4997120;28;20053;-86
2023/01/18 02:39:41;;;;;;;15.40;8.70;;;-3.70;99.90;;;;;;5014594;28;20049;-86
2023/01/18 02:48:56;;;;;;;17.00;8.37;;;-2.30;99.90;;;;;;4997152;28;20468;-86
2023/01/18 02:51:30;;;;;;;17.13;8.53;;;-3.30;99.90;;;;;;5014321;28;20508;-86
2023/01/18 02:54:00;;;;;;;15.03;8.60;;;-2.50;99.90;;;;;;5015583;28;20042;-86
2023/01/18 02:56:58;;;;;;;15.97;8.80;;;-3.60;99.90;;;;;;5014418;28;20574;-86
2023/01/18 02:59:38;;;;;;;14.97;8.63;;;-3.60;99.90;;;;;;5014178;28;20140;-86
2023/01/18 03:02:10;;;;;;;16.40;8.73;;;-4.50;99.90;;;;;;5012466;28;20053;-86
2023/01/18 03:04:55;;;;;;;17.93;9.80;;;-3.20;99.90;;;;;;4996304;28;20065;-86
2023/01/18 03:07:34;;;;;;;19.70;8.87;;;-2.90;99.90;;;;;;5000895;28;20060;-86
2023/01/18 03:10:05;;;;;;;17.40;9.70;;;-1.90;99.90;;;;;;5020929;28;20112;-86
2023/01/18 03:13:01;;;;;;;17.87;9.60;;;-3.30;99.90;;;;;;4995281;28;20100;-86
2023/01/18 03:16:08;;;;;;;17.03;9.63;;;-4.10;99.90;;;;;;4995427;28;20563;-86
2023/01/18 03:22:01;;;;;;;18.80;10.23;;;-2.60;99.90;;;;;;5012334;28;20064;-87
2023/01/18 03:24:30;;;;;;;18.40;10.60;;;-1.40;99.90;;;;;;4996302;28;20467;-86
2023/01/18 03:36:06;;;;;;;17.07;10.30;;;-3.30;99.90;;;;;;5013274;28;20049;-86
2023/01/18 03:38:34;;;;;;;18.97;10.73;;;-3.10;99.90;;;;;;4996361;28;20050;-86
2023/01/18 03:41:01;;;;;;;18.97;10.27;;;-2.80;99.90;;;;;;4995998;28;20053;-86
2023/01/18 03:43:36;;;;;;;19.77;11.10;;;-2.60;99.90;;;;;;5012962;28;20121;-86
2023/01/18 03:46:03;;;;;;;19.87;10.97;;;-2.70;99.90;;;;;;5025064;28;20060;-86
2023/01/18 03:48:33;;;;;;;19.30;10.97;;;-3.10;99.90;;;;;;5014079;28;20129;-86
2023/01/18 03:51:30;;;;;;;18.20;10.77;;;-2.00;99.90;;;;;;4990477;28;20073;-86
2023/01/18 03:56:48;;;;;;;19.10;10.75;;;-3.20;99.90;;;;;;5045359;23;20088;-86
2023/01/18 03:59:16;;;;;;;18.10;11.00;;;-3.60;99.90;;;;;;5015178;28;20171;-86
2023/01/18 04:01:43;;;;;;;20.23;10.90;;;-3.50;99.90;;;;;;5015593;28;20045;-87
2023/01/18 04:04:15;;;;;;;19.57;11.20;;;-2.90;99.90;;;;;;5015122;28;20425;-86
2023/01/18 04:06:49;;;;;;;19.70;11.83;;;-2.50;99.90;;;;;;5015864;28;20054;-87
2023/01/18 04:09:25;;;;;;;20.63;12.70;;;-1.80;99.90;;;;;;5032761;28;20107;-86
2023/01/18 04:11:56;;;;;;;21.50;11.53;;;-3.30;99.90;;;;;;5014712;28;20061;-86
2023/01/18 04:14:22;;;;;;;19.13;11.40;;;-1.60;99.90;;;;;;5032732;28;20080;-86
2023/01/18 04:16:53;;;;;;;20.33;11.40;;;-2.10;99.90;;;;;;5032852;28;20073;-86
2023/01/18 04:19:19;;;;;;;19.03;11.50;;;-3.50;99.90;;;;;;5014578;28;20045;-86
2023/01/18 04:21:45;;;;;;;20.10;11.87;;;-2.70;99.90;;;;;;5046117;28;20045;-86
2023/01/18 04:24:23;;;;;;;19.70;11.37;;;-3.20;99.90;;;;;;5035062;28;20046;-86
2023/01/18 04:26:58;;;;;;;25.30;12.40;;;-2.60;99.90;;;;;;5014397;28;20042;-86
2023/01/18 04:29:35;;;;;;;19.87;12.00;;;-3.10;99.90;;;;;;5014951;28;20104;-86
2023/01/18 04:32:07;;;;;;;20.17;10.77;;;-3.00;99.90;;;;;;5015569;28;20500;-86
2023/01/18 04:34:41;;;;;;;22.47;11.93;;;-3.30;99.90;;;;;;5037824;28;20124;-87
2023/01/18 04:37:29;;;;;;;20.10;11.33;;;-1.90;99.90;;;;;;5021472;28;20049;-86
2023/01/18 04:39:54;;;;;;;21.57;11.60;;;-3.10;99.90;;;;;;5021133;28;20592;-86
2023/01/18 04:42:38;;;;;;;20.67;11.33;;;-3.00;99.90;;;;;;5021506;28;20046;-86
2023/01/18 04:45:22;;;;;;;20.00;11.80;;;-3.60;99.90;;;;;;5038900;28;20049;-86
2023/01/18 04:47:57;;;;;;;20.47;11.27;;;-3.30;99.90;;;;;;5020781;28;20099;-86
2023/01/18 04:50:37;;;;;;;21.37;11.43;;;-3.40;99.90;;;;;;5021471;28;20037;-87
2023/01/18 04:53:12;;;;;;;20.43;12.37;;;-4.00;99.90;;;;;;5020722;28;20052;-86
2023/01/18 04:55:38;;;;;;;24.33;11.97;;;-2.50;99.90;;;;;;5021441;28;20081;-86
2023/01/18 04:58:03;;;;;;;19.57;11.57;;;-3.60;99.90;;;;;;5047763;28;20061;-86
2023/01/18 05:00:29;;;;;;;21.20;12.20;;;-3.60;99.90;;;;;;5039669;28;20496;-87
2023/01/18 05:03:00;;;;;;;21.27;11.53;;;-2.50;99.90;;;;;;5036415;28;20049;-86
2023/01/18 05:05:32;;;;;;;21.20;11.63;;;-3.40;99.90;;;;;;5000865;28;20041;-86
2023/01/18 05:08:09;;;;;;;23.20;12.10;;;-2.90;99.90;;;;;;5018279;28;20552;-86
2023/01/18 05:14:29;;;;;;;23.43;11.83;;;-3.30;99.90;;;;;;5018338;28;20180;-86
2023/01/18 05:17:07;;;;;;;23.43;11.33;;;-3.50;99.90;;;;;;5019176;28;20486;-86
2023/01/18 05:19:47;;;;;;;21.33;11.90;;;-2.00;99.90;;;;;;5018994;28;20049;-87
2023/01/18 05:22:28;;;;;;;21.97;11.87;;;-1.40;99.90;;;;;;5007010;23;20046;-86
2023/01/18 05:25:07;;;;;;;23.43;12.63;;;-3.60;99.90;;;;;;5026443;23;20461;-86
2023/01/18 05:27:39;;;;;;;19.93;11.83;;;-3.20;99.90;;;;;;5001369;28;20065;-86
2023/01/18 05:30:17;;;;;;;22.60;12.23;;;-1.90;99.90;;;;;;5001340;28;20425;-87
2023/01/18 05:33:04;;;;;;;21.07;12.20;;;-3.80;99.90;;;;;;5001309;28;20060;-86
2023/01/18 05:35:49;;;;;;;22.67;12.47;;;-1.00;99.90;;;;;;5013064;28;20046;-86
2023/01/18 05:41:17;;;;;;;21.17;12.07;;;-3.40;99.90;;;;;;5072217;23;20050;-86
2023/01/18 05:44:01;;;;;;;23.67;12.93;;;-4.40;99.90;;;;;;5000447;28;20139;-86
2023/01/18 05:46:42;;;;;;;24.07;12.77;;;-2.50;99.90;;;;;;5014728;28;20394;-87
2023/01/18 05:49:23;;;;;;;25.13;13.20;;;-3.40;99.90;;;;;;4998349;28;20068;-86
2023/01/18 05:52:13;;;;;;;25.97;13.73;;;-3.00;99.90;;;;;;4998886;28;20042;-87
2023/01/18 05:54:38;;;;;;;28.73;15.30;;;-2.40;99.90;;;;;;5015836;28;20108;-87
2023/01/18 05:57:19;;;;;;;27.80;15.20;;;-3.10;99.90;;;;;;4997988;28;20038;-87
2023/01/18 06:00:08;;;;;;;26.30;14.73;;;-3.60;99.90;;;;;;5065929;23;20042;-87
2023/01/18 06:02:41;;;;;;;30.40;16.13;;;-3.00;99.90;;;;;;5028139;23;20077;31
2023/01/18 06:06:01;;;;;;;;;;;;;;;;;;;;;
2023/01/18 06:08:57;;;;;;;27.57;16.10;;;-2.80;99.90;;;;;;4909067;29;20055;-87
2023/01/18 06:11:31;;;;;;;28.97;15.83;;;-3.60;99.90;;;;;;4962832;29;20052;-87
2023/01/18 06:14:06;;;;;;;;;;;-2.90;99.90;;;;;;4909223;29;20055;-87
2023/01/18 06:17:30;;;;;;;26.77;15.67;;;-1.90;99.90;;;;;;4956479;29;19923;-88
2023/01/18 06:20:31;;;;;;;28.13;16.00;;;-2.50;99.90;;;;;;4955261;29;20098;-86
2023/01/18 06:23:07;;;;;;;32.17;17.50;;;-2.30;99.90;;;;;;4956888;29;20051;-91
2023/01/18 06:25:38;;;;;;;27.20;16.23;;;-3.20;99.90;;;;;;4938244;29;20055;-87
2023/01/18 06:28:19;;;;;;;26.20;15.93;;;-2.30;99.90;;;;;;4932249;29;20071;-84
2023/01/18 06:31:07;;;;;;;30.87;16.37;;;-3.40;99.90;;;;;;4928944;29;20480;-85
2023/01/18 06:33:58;;;;;;;28.20;15.97;;;-3.50;99.90;;;;;;4988471;23;20529;-86
2023/01/18 06:36:28;;;;;;;27.97;16.70;;;-1.90;99.90;;;;;;5013801;28;20054;-87
2023/01/18 06:39:06;;;;;;;28.83;16.73;;;-3.40;99.90;;;;;;4996690;28;20516;-87
2023/01/18 06:41:38;;;;;;;29.03;16.03;;;-3.40;99.90;;;;;;5014429;28;20046;-88
2023/01/18 06:46:42;;;;;;;29.57;16.20;;;-3.40;99.90;;;;;;1445849;26;20054;-85
2023/01/18 06:49:59;;;;;;;30.23;17.10;;;-3.00;99.90;;;;;;4993115;28;20039;-86
2023/01/18 06:52:25;;;;;;;27.70;15.73;;;-2.80;99.90;;;;;;4999671;28;20089;-87
2023/01/18 06:55:10;;;;;;;31.27;17.30;;;-3.00;99.90;;;;;;5009099;23;20081;-86
2023/01/18 06:57:44;;;;;;;29.97;17.30;;;-2.00;99.90;;;;;;4981670;28;20160;-86
2023/01/18 07:01:02;;;;;;;28.63;16.67;;;-3.30;99.90;;;;;;4987663;23;20081;-86
2023/01/18 07:04:16;;;;;;;30.20;17.27;;;-4.00;99.90;;;;;;4998681;28;20076;-86
2023/01/18 07:10:08;;;;;;;28.70;16.87;;;-3.90;99.90;;;;;;5009771;23;20077;-86
2023/01/18 07:12:47;;;;;;;30.30;17.00;;;-4.50;99.90;;;;;;5002954;28;20045;-87
2023/01/18 07:15:14;;;;;;;32.73;18.83;;;-3.60;99.90;;;;;;4985790;28;20049;-86
2023/01/18 07:17:39;;;;;;;34.00;18.60;;;-2.30;99.90;;;;;;4983381;28;20046;-84
2023/01/18 07:24:38;;;;;;;32.00;18.57;;;-4.10;99.90;;;;;;4991186;28;20076;-86
2023/01/18 07:27:13;;;;;;;33.67;19.30;;;-2.30;99.90;;;;;;5017096;28;20049;-86
2023/01/18 07:30:07;;;;;;;34.90;19.13;;;-3.30;99.90;;;;;;5012912;28;20405;-85
2023/01/18 07:32:54;;;;;;;36.58;18.67;;;-2.60;99.90;;;;;;4990641;28;20045;-81
2023/01/18 07:35:38;;;;;;;30.53;18.10;;;-3.50;99.90;;;;;;4994791;28;20050;-83
2023/01/18 07:38:03;;;;;;;31.60;18.27;;;-3.20;99.90;;;;;;5013605;28;20052;-83
2023/01/18 07:40:29;;;;;;;32.57;18.83;;;-1.70;99.90;;;;;;5016106;28;20050;-82
2023/01/18 07:43:07;;;;;;;34.67;18.77;;;-3.20;99.90;;;;;;5084783;23;20132;-82
2023/01/18 07:45:58;;;;;;;29.43;18.60;;;-3.50;99.90;;;;;;4995700;28;20449;-82
2023/01/18 07:48:25;;;;;;;31.57;18.33;;;-3.00;99.90;;;;;;4998264;28;20052;-82
2023/01/18 07:51:16;;;;;;;33.47;19.23;;;-3.20;99.90;;;;;;4995347;28;20059;-83
2023/01/18 07:53:42;;;;;;;32.80;18.73;;;-2.20;99.90;;;;;;5013297;28;20422;-81
2023/01/18 07:56:24;;;;;;;35.77;18.30;;;-3.00;99.90;;;;;;4993760;28;20049;-81
2023/01/18 07:58:51;;;;;;;31.03;18.23;;;-3.50;99.90;;;;;;4995890;28;20045;-80
2023/01/18 08:01:19;;;;;;;29.67;18.17;;;-3.10;99.90;;;;;;5001699;28;20041;-81
2023/01/18 08:03:46;;;;;;;30.90;17.37;;;-2.90;99.90;;;;;;5011584;28;20121;-81
2023/01/18 08:06:15;;;;;;;29.73;17.70;;;-3.00;99.90;;;;;;5009525;28;20041;-81
2023/01/18 08:08:42;;;;;;;30.13;18.40;;;-2.80;99.90;;;;;;4994110;28;20080;-81
2023/01/18 08:11:09;;;;;;;30.97;17.90;;;-2.90;99.90;;;;;;5017585;28;20046;-81
2023/01/18 08:13:35;;;;;;;29.00;17.60;;;-2.90;99.90;;;;;;5003368;28;20038;-80
2023/01/18 08:16:06;;;;;;;29.93;17.20;;;-2.90;99.90;;;;;;5013101;28;20042;-81
2023/01/18 08:18:31;;;;;;;28.87;16.73;;;-2.80;99.90;;;;;;4993727;28;20056;-82
2023/01/18 08:21:13;;;;;;;30.27;17.67;;;-1.80;99.90;;;;;;5012966;28;20120;-83
2023/01/18 08:23:54;;;;;;;30.00;16.80;;;-2.50;99.90;;;;;;5000443;28;20049;-80
2023/01/18 08:26:22;;;;;;;26.58;16.67;;;-2.70;99.90;;;;;;5021476;28;20037;-80
2023/01/18 08:28:51;;;;;;;30.03;16.77;;;-2.50;99.90;;;;;;5003411;28;20056;-81
2023/01/18 08:31:19;;;;;;;30.33;16.37;;;-3.30;99.90;;;;;;5019503;28;20778;-81
2023/01/18 08:33:47;;;;;;;30.87;16.10;;;-2.50;99.90;;;;;;5005057;28;20097;-81
2023/01/18 08:36:19;;;;;;;26.53;15.57;;;-1.40;99.90;;;;;;5018126;28;20053;-81
2023/01/18 08:38:58;;;;;;;27.07;15.63;;;-2.40;99.90;;;;;;4999351;28;20034;-82
2023/01/18 08:41:27;;;;;;;28.37;15.57;;;-2.40;99.90;;;;;;5004579;28;20046;-81
2023/01/18 08:43:57;;;;;;;24.73;14.60;;;-2.20;99.90;;;;;;5003174;28;20053;-81
2023/01/18 08:46:24;;;;;;;28.03;15.03;;;-2.30;99.90;;;;;;5003076;28;20056;-81
2023/01/18 08:48:54;;;;;;;27.03;15.57;;;-2.30;99.90;;;;;;5023251;28;20053;-81
2023/01/18 08:51:21;;;;;;;27.47;15.40;;;-2.20;99.90;;;;;;5009744;28;20041;-81
2023/01/18 08:53:53;;;;;;;27.50;16.10;;;-0.80;99.90;;;;;;5031069;28;20379;-80
2023/01/18 08:56:19;;;;;;;28.83;15.27;;;-2.00;99.90;;;;;;5032137;28;20050;-81
2023/01/18 08:58:44;;;;;;;24.67;14.40;;;-1.90;99.90;;;;;;5026121;28;20056;-81
2023/01/18 09:01:10;;;;;;;25.87;14.17;;;-1.80;99.90;;;;;;5001889;28;20486;-81
2023/01/18 09:03:36;;;;;;;26.03;14.57;;;-1.80;99.90;;;;;;5014062;28;20045;-81
2023/01/18 09:06:04;;;;;;;23.33;14.17;;;-1.70;99.90;;;;;;5032033;28;20042;-81
2023/01/18 09:08:30;;;;;;;24.97;14.00;;;-1.60;99.90;;;;;;5031392;28;20049;-81
2023/01/18 09:11:08;;;;;;;25.17;14.20;;;-1.60;99.90;;;;;;5032081;28;20052;-81
2023/01/18 09:13:34;;;;;;;27.10;15.23;;;-1.50;99.90;;;;;;5032224;28;20165;-81
2023/01/18 09:16:01;;;;;;;28.37;15.83;;;-1.40;99.90;;;;;;5035387;28;20085;-81
2023/01/18 09:18:27;;;;;;;26.80;14.20;;;-1.30;99.90;;;;;;5015224;28;20130;-81
2023/01/18 09:20:55;;;;;;;24.73;12.87;;;-1.20;99.90;;;;;;5036463;28;20045;-82
2023/01/18 09:23:21;;;;;;;24.57;12.63;;;-1.10;99.90;;;;;;5017610;28;20405;-81
2023/01/18 09:26:15;;;;;;;22.87;13.27;;;-0.50;99.90;;;;;;5036414;28;20073;-82
2023/01/18 09:28:42;;;;;;;23.47;13.07;;;0.30;99.90;;;;;;5017791;28;20044;-82
2023/01/18 09:31:08;;;;;;;22.83;13.03;;;-0.90;99.90;;;;;;5035895;28;20125;-82
2023/01/18 09:33:41;;;;;;;21.33;12.27;;;-0.90;99.90;;;;;;5034990;28;20054;-82
2023/01/18 09:36:10;;;;;;;21.40;11.83;;;-1.00;99.90;;;;;;5034895;28;20120;-82
2023/01/18 09:38:37;;;;;;;20.20;12.37;;;0.50;99.90;;;;;;5014586;28;20050;-82
2023/01/18 09:41:07;;;;;;;19.57;12.30;;;-0.70;99.90;;;;;;5006012;28;20033;-82
2023/01/18 09:43:41;;;;;;;20.80;11.73;;;-0.60;99.90;;;;;;5024477;28;20474;-82
2023/01/18 09:46:19;;;;;;;21.00;12.27;;;-0.50;99.90;;;;;;5033787;28;20045;-82
2023/01/18 09:48:51;;;;;;;20.83;11.87;;;-0.40;99.90;;;;;;5016748;28;20073;-82
2023/01/18 09:51:28;;;;;;;20.30;12.00;;;-0.30;99.90;;;;;;5017445;28;20080;-83
2023/01/18 09:53:59;;;;;;;19.20;11.57;;;-0.30;99.90;;;;;;5030546;28;20045;-82
2023/01/18 09:56:29;;;;;;;22.40;11.63;;;-0.20;99.90;;;;;;5007536;28;20042;-82
2023/01/18 09:59:04;;;;;;;19.60;11.70;;;-0.20;99.90;;;;;;5029239;28;20099;-82
2023/01/18 10:01:34;;;;;;;21.27;12.07;;;-0.10;99.90;;;;;;5035184;28;20045;-82
2023/01/18 10:04:14;;;;;;;17.47;11.67;;;-0.10;99.90;;;;;;5029490;28;20042;-81
2023/01/18 10:07:07;;;;;;;18.97;11.63;;;-0.10;99.90;;;;;;5017599;28;20045;-81
2023/01/18 10:09:45;;;;;;;17.73;11.07;;;0.10;99.90;;;;;;5016551;28;20532;-82
2023/01/18 10:12:22;;;;;;;20.23;12.17;;;0.30;99.90;;;;;;5016994;28;20055;-82
2023/01/18 10:14:55;;;;;;;19.53;11.50;;;0.30;99.90;;;;;;5017751;28;20053;-82
2023/01/18 10:17:24;;;;;;;18.20;11.03;;;0.40;99.90;;;;;;5016013;28;20037;-81
2023/01/18 10:19:50;;;;;;;17.93;10.53;;;0.50;99.90;;;;;;5017530;28;20128;-81
2023/01/18 10:22:41;;;;;;;18.43;10.87;;;0.50;99.90;;;;;;5035036;28;20057;-83
2023/01/18 10:25:31;;;;;;;17.23;11.00;;;0.60;99.90;;;;;;5013329;28;20103;-81
2023/01/18 10:28:16;;;;;;;16.23;10.60;;;0.60;99.90;;;;;;5009602;28;20132;-81
2023/01/18 10:30:49;;;;;;;18.63;10.10;;;2.00;99.90;;;;;;5003560;28;20049;-81
2023/01/18 10:33:27;;;;;;;17.05;9.77;;;0.90;99.90;;;;;;4996834;28;20053;-81
2023/01/18 10:36:04;;;;;;;18.63;9.67;;;0.80;99.90;;;;;;5014804;28;20042;-81
2023/01/18 10:38:30;;;;;;;18.77;9.77;;;0.90;99.90;;;;;;5014118;28;20045;-81
2023/01/18 10:41:00;;;;;;;18.07;10.43;;;1.70;99.90;;;;;;4997165;28;20061;-81
2023/01/18 10:43:29;;;;;;;20.57;10.13;;;1.00;99.90;;;;;;5014170;28;20045;-82
2023/01/18 10:45:55;;;;;;;15.23;9.67;;;1.10;99.90;;;;;;5013676;28;20049;-82
2023/01/18 10:48:30;;;;;;;16.57;9.20;;;1.20;99.90;;;;;;4996410;28;20570;-82
2023/01/18 10:50:59;;;;;;;19.43;9.30;;;1.20;99.90;;;;;;5014816;28;20046;-82
2023/01/18 10:53:31;;;;;;;16.87;9.47;;;1.30;99.90;;;;;;4995820;28;20046;-82
2023/01/18 10:56:04;;;;;;;18.90;8.73;;;1.40;99.90;;;;;;4997367;28;20137;-82
2023/01/18 10:58:50;;;;;;;15.70;8.93;;;1.50;99.90;;;;;;5014269;28;20054;-82
2023/01/18 11:01:20;;;;;;;15.50;8.70;;;1.70;99.90;;;;;;4979991;28;20058;-82
2023/01/18 11:03:49;;;;;;;18.13;8.70;;;2.10;99.90;;;;;;4998864;28;20128;-82
2023/01/18 11:06:15;;;;;;;15.03;7.93;;;1.80;99.90;;;;;;5016959;28;20132;-82
2023/01/18 11:08:42;;;;;;;15.53;7.93;;;1.90;99.90;;;;;;5000052;28;20227;-82
2023/01/18 11:12:32;;;;;;;15.43;7.87;;;2.30;99.90;;;;;;5029132;28;20545;-81
2023/01/18 11:14:27;;;;;;;14.93;7.73;;;2.10;99.90;;;;;;5011470;23;20212;-82
2023/01/18 11:16:59;;;;;;;13.07;6.83;;;2.30;99.90;;;;;;5006637;28;20085;-82
2023/01/18 11:19:25;;;;;;;13.93;6.67;;;2.30;99.90;;;;;;4983522;28;20052;-83
2023/01/18 11:21:52;;;;;;;14.40;7.17;;;2.40;99.90;;;;;;5005360;28;20043;-82
2023/01/18 11:24:30;;;;;;;13.10;6.20;;;2.50;99.90;;;;;;5012115;28;20496;-82
2023/01/18 11:27:12;;;;;;;13.43;6.70;;;2.50;99.90;;;;;;5000909;28;20054;-82
2023/01/18 11:29:42;;;;;;;12.63;6.67;;;2.60;99.90;;;;;;5002806;28;20088;-82
2023/01/18 11:32:26;;;;;;;13.80;6.23;;;2.70;99.90;;;;;;4984621;28;20050;-82
2023/01/18 11:37:42;;;;;;;15.03;5.80;;;3.00;99.90;;;;;;4974042;28;20463;-83
2023/01/18 11:40:27;;;;;;;13.15;6.47;;;4.40;99.90;;;;;;4955701;28;20133;-83
2023/01/18 11:43:00;;;;;;;14.53;6.43;;;3.10;99.90;;;;;;4973071;28;20042;-82
2023/01/18 11:45:44;;;;;;;12.80;6.17;;;3.30;99.90;;;;;;4955486;28;20057;-83
2023/01/18 11:48:16;;;;;;;11.75;5.97;;;3.80;99.90;;;;;;4955664;28;20214;-82
2023/01/18 11:51:38;;;;;;;13.67;6.00;;;2.70;99.90;;;;;;4950786;28;20051;-83
2023/01/18 11:54:27;;;;;;;15.57;6.07;;;3.50;99.90;;;;;;4961941;28;20105;-83
2023/01/18 11:57:11;;;;;;;13.97;6.37;;;3.00;99.90;;;;;;4943310;28;20078;-83
2023/01/18 11:59:53;;;;;;;12.57;6.23;;;2.90;99.90;;;;;;4956187;28;20491;-83
2023/01/18 12:02:37;;;;;;;13.90;5.93;;;3.00;99.90;;;;;;4937206;28;20064;-83
2023/01/18 12:05:32;;;;;;;12.80;6.30;;;4.40;99.90;;;;;;4945123;28;20047;-83
2023/01/18 12:08:16;;;;;;;;;;;3.30;99.90;;;;;;4943754;28;20042;-83
2023/01/18 12:11:29;;;;;;;12.30;6.43;;;3.30;99.90;;;;;;4953251;28;19922;-83
2023/01/18 12:14:34;;;;;;;13.05;6.20;;;3.30;99.90;;;;;;4959601;28;20050;-83
2023/01/18 12:17:20;;;;;;;14.57;6.90;;;3.20;99.90;;;;;;4944560;28;20038;-84
2023/01/18 12:20:34;;;;;;;11.50;5.90;;;3.00;99.90;;;;;;4961590;28;20038;-85
2023/01/18 12:23:31;;;;;;;12.40;6.07;;;2.10;99.90;;;;;;4962444;28;20122;-84
2023/01/18 12:26:45;;;;;;;12.63;5.77;;;4.00;99.90;;;;;;4942256;28;20047;-84
2023/01/18 12:29:57;;;;;;;13.70;6.60;;;3.50;99.90;;;;;;4952515;28;20059;-83
2023/01/18 12:33:00;;;;;;;12.60;5.83;;;3.50;99.90;;;;;;4941446;28;20050;-83
2023/01/18 12:36:13;;;;;;;12.67;5.73;;;3.40;99.90;;;;;;4938174;28;20110;-83
2023/01/18 12:39:48;;;;;;;13.20;6.33;;;4.70;99.90;;;;;;4941025;28;20392;-84
2023/01/18 12:46:44;;;;;;;13.30;6.30;;;3.10;99.90;;;;;;4958332;28;20062;-84
2023/01/18 12:49:17;;;;;;;;;;;5.10;99.90;;;;;;4959692;28;20533;-84
2023/01/18 12:52:07;;;;;;;13.23;6.00;;;3.90;99.90;;;;;;4940370;28;19929;-84
2023/01/18 12:54:40;;;;;;;12.60;5.80;;;4.30;99.90;;;;;;4961715;28;20105;-84
2023/01/18 12:57:29;;;;;;;13.20;5.75;;;3.80;99.90;;;;;;4943708;28;20596;-84
2023/01/18 13:00:32;;;;;;;13.67;5.83;;;5.00;99.90;;;;;;4946190;28;20138;-84
2023/01/18 13:03:17;;;;;;;10.77;5.20;;;4.60;99.90;;;;;;4937265;29;20052;-84
2023/01/18 13:06:02;;;;;;;12.03;5.80;;;6.50;99.90;;;;;;4935604;29;20067;-84
2023/01/18 13:09:07;;;;;;;12.67;5.83;;;6.00;99.90;;;;;;4920608;29;20432;-85
2023/01/18 13:12:07;;;;;;;11.73;5.63;;;4.60;99.90;;;;;;4936606;29;20051;-84
2023/01/18 13:15:00;;;;;;;12.03;5.70;;;4.20;99.90;;;;;;4919742;29;20048;-84
2023/01/18 13:18:22;;;;;;;10.95;5.75;;;4.20;99.90;;;;;;4929378;29;20142;-84
2023/01/18 13:21:19;;;;;;;12.60;5.57;;;4.50;99.90;;;;;;4957402;29;20460;-84
2023/01/18 13:24:06;;;;;;;13.10;5.63;;;5.00;99.90;;;;;;4939930;28;20093;-83
2023/01/18 13:30:26;;;;;;;13.20;5.93;;;4.30;99.90;;;;;;4975710;28;20491;-84
2023/01/18 13:33:19;;;;;;;12.97;5.33;;;4.40;99.90;;;;;;4976700;28;20058;-84
2023/01/18 13:39:16;;;;;;;12.33;5.23;;;6.10;99.90;;;;;;4976778;28;20051;-84
2023/01/18 13:42:14;;;;;;;10.63;5.13;;;6.30;99.90;;;;;;4987641;23;20095;-84
2023/01/18 13:44:43;;;;;;;10.97;5.00;;;4.30;99.90;;;;;;4983886;28;20402;-84
2023/01/18 13:47:45;;;;;;;11.87;4.60;;;4.40;99.90;;;;;;4998003;28;20506;-84
2023/01/18 13:50:30;;;;;;;11.70;4.80;;;4.40;99.90;;;;;;5015535;28;20128;-84
2023/01/18 13:53:15;;;;;;;;;;;5.70;99.90;;;;;;5015968;28;20058;-82
2023/01/18 13:55:53;;;;;;;13.27;4.90;;;4.30;99.90;;;;;;4996965;28;19922;-82
2023/01/18 13:58:27;;;;;;;10.83;4.53;;;4.30;99.90;;;;;;4988170;28;20093;-82
2023/01/18 14:00:53;;;;;;;;;;;4.30;99.90;;;;;;4979397;28;20486;-82
2023/01/18 14:03:29;;;;;;;11.00;4.90;;;4.30;99.90;;;;;;5260088;23;19921;-82
2023/01/18 14:05:56;;;;;;;12.20;4.93;;;4.30;99.90;;;;;;4995503;28;20050;-82
2023/01/18 14:08:26;;;;;;;11.17;5.00;;;4.20;99.90;;;;;;4997114;28;20397;-82
2023/01/18 14:10:59;;;;;;;11.93;5.00;;;4.20;99.90;;;;;;4996709;28;20038;-83
2023/01/18 14:13:43;;;;;;;11.53;5.60;;;4.10;99.90;;;;;;4994170;28;20041;-83
2023/01/18 14:16:29;;;;;;;12.57;5.50;;;4.60;99.90;;;;;;5001985;28;20133;-82
2023/01/18 14:19:17;;;;;;;11.43;5.00;;;5.00;99.90;;;;;;4996019;28;20053;-83
2023/01/18 14:22:16;;;;;;;12.80;5.37;;;3.60;99.90;;;;;;4996648;28;20049;-82
2023/01/18 14:25:04;;;;;;;12.77;4.90;;;3.50;99.90;;;;;;5014488;28;20241;-82
2023/01/18 14:27:36;;;;;;;12.63;5.70;;;3.40;99.90;;;;;;5014189;28;20124;-82
2023/01/18 14:30:24;;;;;;;12.83;5.60;;;3.30;99.90;;;;;;4996888;28;20417;-82
2023/01/18 14:33:22;;;;;;;12.87;5.87;;;3.20;99.90;;;;;;4996096;28;20062;-82
2023/01/18 14:35:59;;;;;;;13.43;5.73;;;3.20;99.90;;;;;;4997743;28;20076;-82
2023/01/18 14:38:26;;;;;;;12.20;5.93;;;3.80;99.90;;;;;;4995895;28;20054;-82
2023/01/18 14:40:55;;;;;;;13.93;6.67;;;3.10;99.90;;;;;;5014113;28;20124;-82
2023/01/18 14:43:28;;;;;;;16.23;7.20;;;3.10;99.90;;;;;;5014548;28;20042;-82
2023/01/18 14:46:21;;;;;;;14.07;5.77;;;3.00;99.90;;;;;;4996182;28;20042;-82
2023/01/18 14:48:54;;;;;;;11.37;5.70;;;3.00;99.90;;;;;;5012207;28;20034;-80
2023/01/18 14:51:23;;;;;;;11.95;5.75;;;2.90;99.90;;;;;;5012316;28;20046;-80
2023/01/18 14:53:56;;;;;;;12.97;5.60;;;2.90;99.90;;;;;;4996016;28;20104;-81